KNBG

New Orleans NAS JRB / Alvin Callender Field Airport

New Orleans, Louisiana, USA
METAR KNBG 151755Z 28011G16KT 10SM OVC014 12/09 A3006 RMK AO2 SLP179 T01170094 10117 20106 58000 $
Observed Flight Rules
Dec-15 @ 17:55 UTC (44 minutes ago) Marginal Visual Flight Rules
Wind Visibility Clouds
280° at 11 knots
 Gusting to 16 knots
10 miles
  • Overcast at 1,400' AGL
Temperatures Readings
Current 12°C / 54°F
Dewpoint 9°C / 48°F
Humidity 82%
Altimeter 30.06" Hg
Pressure 1017.9 hPa
Elevation 1
METAR KNBG 151755Z 28011G16KT 10SM OVC014 12/09 A3006 RMK AO2 SLP179 T01170094 10117 20106 58000 $
Observed Flight Rules
Dec-15 @ 17:55 UTC
(44 minutes ago)
MVFR
Wind Visibility
280° at 11 knots
 Gusting to 16 knots
10 miles
Clouds
  • Overcast at 1,400' AGL
Temperature Dewpoint
12°C / 54°F 9°C / 48°F
Humidity Altimeter Pressure
82% 30.06" Hg 1017.9 hPa